Time;durP1;ratioP1;P1;durP2;ratioP2;P2;SDS_P1;SDS_P2;PMS_P1;PMS_P2;Temp;Humidity;BMP_temperature;BMP_pressure;BME280_temperature;BME280_humidity;BME280_pressure;Samples;Min_cycle;Max_cycle;Signal;HPM_P1;HPM_P2
2022/06/11 00:01:21;;;;;;;1.23;0.95;;;;;;;;;;5009099;28;20081;-56
2022/06/11 00:03:48;;;;;;;1.08;0.75;;;;;;;;;;5008181;28;20092;-57
2022/06/11 00:06:14;;;;;;;1.13;0.75;;;;;;;;;;5000867;28;20026;-56
2022/06/11 00:08:40;;;;;;;0.85;0.70;;;;;;;;;;5006396;28;20072;-57
2022/06/11 00:11:07;;;;;;;0.70;0.65;;;;;;;;;;5010148;28;20026;-56
2022/06/11 00:13:33;;;;;;;0.57;0.57;;;;;;;;;;5011111;28;20043;-57
2022/06/11 00:16:01;;;;;;;0.70;0.70;;;;;;;;;;5006906;28;20029;-56
2022/06/11 00:18:28;;;;;;;1.55;0.65;;;;;;;;;;5011220;28;20383;-56
2022/06/11 00:20:54;;;;;;;0.60;0.60;;;;;;;;;;5010163;28;20204;-56
2022/06/11 00:23:20;;;;;;;3.47;1.05;;;;;;;;;;5006287;28;20033;-57
2022/06/11 00:25:46;;;;;;;1.27;0.82;;;;;;;;;;5002258;28;20040;-57
2022/06/11 00:28:12;;;;;;;1.02;0.75;;;;;;;;;;4998698;28;20018;-55
2022/06/11 00:30:38;;;;;;;2.15;0.60;;;;;;;;;;5010387;28;20054;-57
2022/06/11 00:33:06;;;;;;;0.90;0.70;;;;;;;;;;5003392;28;20403;-56
2022/06/11 00:35:33;;;;;;;0.90;0.60;;;;;;;;;;5010920;28;20375;-56
2022/06/11 00:37:59;;;;;;;1.27;0.77;;;;;;;;;;5011119;28;20109;-56
2022/06/11 00:40:27;;;;;;;1.23;0.90;;;;;;;;;;5011248;28;20443;-55
2022/06/11 00:42:54;;;;;;;0.60;0.55;;;;;;;;;;5010821;28;20109;-55
2022/06/11 00:45:26;;;;;;;0.88;0.80;;;;;;;;;;5011568;28;20029;-56
2022/06/11 00:48:15;;;;;;;0.60;0.50;;;;;;;;;;5010748;28;20025;-57
2022/06/11 00:50:55;;;;;;;0.98;0.60;;;;;;;;;;4999863;28;20547;-56
2022/06/11 00:53:21;;;;;;;0.80;0.70;;;;;;;;;;5007311;28;20053;-58
2022/06/11 00:55:47;;;;;;;1.45;0.88;;;;;;;;;;5010341;28;20026;-56
2022/06/11 00:58:16;;;;;;;0.93;0.60;;;;;;;;;;5011372;28;20030;-56
2022/06/11 01:00:43;;;;;;;1.17;0.80;;;;;;;;;;5010551;28;20105;-55
2022/06/11 01:03:10;;;;;;;0.75;0.60;;;;;;;;;;5011122;28;20426;-57
2022/06/11 01:05:38;;;;;;;1.10;0.80;;;;;;;;;;5010264;28;20079;-57
2022/06/11 01:08:16;;;;;;;2.38;0.88;;;;;;;;;;5011556;28;20038;-56
2022/06/11 01:10:58;;;;;;;2.45;1.55;;;;;;;;;;5010258;28;20495;-55
2022/06/11 01:13:31;;;;;;;3.45;1.33;;;;;;;;;;5011566;28;20411;-57
2022/06/11 01:15:59;;;;;;;2.45;1.65;;;;;;;;;;5009506;28;20611;-57
2022/06/11 01:18:41;;;;;;;4.88;1.33;;;;;;;;;;5011230;28;20517;-57
2022/06/11 01:21:16;;;;;;;1.27;0.93;;;;;;;;;;5004887;28;20483;-57
2022/06/11 01:23:42;;;;;;;1.65;1.17;;;;;;;;;;5010422;28;20145;-57
2022/06/11 01:26:27;;;;;;;1.52;0.82;;;;;;;;;;5011277;28;20515;-56
2022/06/11 01:29:11;;;;;;;1.55;0.90;;;;;;;;;;5009483;28;20115;-56
2022/06/11 01:32:01;;;;;;;1.60;0.85;;;;;;;;;;5010571;28;20033;-57
2022/06/11 01:34:39;;;;;;;1.75;0.98;;;;;;;;;;5010993;28;20018;-55
2022/06/11 01:37:09;;;;;;;1.83;1.00;;;;;;;;;;5011460;28;20467;-57
2022/06/11 01:39:39;;;;;;;1.13;0.95;;;;;;;;;;5010853;28;20045;-57
2022/06/11 01:42:11;;;;;;;3.97;1.00;;;;;;;;;;5013991;28;20022;-56
2022/06/11 01:44:38;;;;;;;2.05;1.10;;;;;;;;;;5014062;28;20161;-57
2022/06/11 01:47:05;;;;;;;1.90;0.90;;;;;;;;;;5014561;28;20054;-56
2022/06/11 01:49:33;;;;;;;1.77;1.00;;;;;;;;;;5014575;28;20481;-56
2022/06/11 01:51:59;;;;;;;1.58;1.10;;;;;;;;;;5013424;28;20022;-56
2022/06/11 01:54:25;;;;;;;2.47;1.00;;;;;;;;;;5014171;28;20032;-52
2022/06/11 01:57:03;;;;;;;2.22;1.05;;;;;;;;;;5013580;28;20018;-56
2022/06/11 01:59:48;;;;;;;2.22;1.10;;;;;;;;;;5014234;28;20045;-55
2022/06/11 02:02:20;;;;;;;1.05;0.88;;;;;;;;;;5002211;28;20029;-55
2022/06/11 02:05:09;;;;;;;1.75;1.10;;;;;;;;;;5013532;28;20050;-56
2022/06/11 02:07:41;;;;;;;1.42;0.93;;;;;;;;;;5002548;28;20492;-55
2022/06/11 02:10:26;;;;;;;1.60;1.02;;;;;;;;;;5013180;28;20032;-52
2022/06/11 02:13:07;;;;;;;2.95;0.90;;;;;;;;;;5010845;28;20040;-54
2022/06/11 02:15:37;;;;;;;1.15;0.88;;;;;;;;;;5011943;28;20037;-55
2022/06/11 02:18:08;;;;;;;1.65;0.90;;;;;;;;;;5010265;28;20474;-54
2022/06/11 02:20:40;;;;;;;1.55;1.00;;;;;;;;;;5012758;28;20660;-54
2022/06/11 02:23:09;;;;;;;1.52;0.95;;;;;;;;;;5012651;28;20029;-56
2022/06/11 02:25:38;;;;;;;2.35;1.10;;;;;;;;;;5012809;28;20024;-58
2022/06/11 02:28:06;;;;;;;2.30;1.20;;;;;;;;;;5009888;28;20029;-55
2022/06/11 02:30:33;;;;;;;1.67;1.02;;;;;;;;;;5012155;28;20457;-56
2022/06/11 02:33:00;;;;;;;2.13;1.20;;;;;;;;;;5011765;28;20113;-55
2022/06/11 02:35:40;;;;;;;3.15;1.30;;;;;;;;;;5012198;28;20120;-56
2022/06/11 02:38:08;;;;;;;1.67;1.23;;;;;;;;;;5011622;28;20446;-55
2022/06/11 02:40:40;;;;;;;1.90;1.30;;;;;;;;;;5011889;28;20038;-56
2022/06/11 02:43:06;;;;;;;1.10;1.00;;;;;;;;;;5012540;28;20022;-56
2022/06/11 02:45:32;;;;;;;1.83;1.10;;;;;;;;;;5011902;28;20032;-56
2022/06/11 02:47:57;;;;;;;1.88;1.00;;;;;;;;;;5011286;28;20100;-56
2022/06/11 02:50:26;;;;;;;2.05;0.90;;;;;;;;;;5012074;28;20025;-57
2022/06/11 02:52:54;;;;;;;1.48;1.00;;;;;;;;;;5010333;28;20105;-56
2022/06/11 02:55:20;;;;;;;1.98;1.10;;;;;;;;;;5011893;28;20491;-55
2022/06/11 02:57:46;;;;;;;2.03;1.10;;;;;;;;;;5011235;28;20448;-54
2022/06/11 03:00:15;;;;;;;1.55;1.42;;;;;;;;;;5012569;28;20408;-53
2022/06/11 03:02:45;;;;;;;1.05;0.90;;;;;;;;;;5012483;28;20025;-55
2022/06/11 03:05:11;;;;;;;1.23;0.82;;;;;;;;;;5012827;28;20049;-56
2022/06/11 03:07:37;;;;;;;1.58;1.20;;;;;;;;;;5012734;28;20067;-57
2022/06/11 03:10:04;;;;;;;1.08;0.80;;;;;;;;;;5012932;28;20025;-57
2022/06/11 03:12:30;;;;;;;2.42;1.10;;;;;;;;;;5012975;28;20018;-57
2022/06/11 03:14:56;;;;;;;2.72;1.50;;;;;;;;;;5012126;28;20022;-56
2022/06/11 03:17:23;;;;;;;2.05;1.23;;;;;;;;;;5012896;28;20021;-54
2022/06/11 03:19:49;;;;;;;1.23;0.70;;;;;;;;;;5011895;28;20069;-55
2022/06/11 03:22:17;;;;;;;1.90;1.15;;;;;;;;;;5012985;28;20022;-55
2022/06/11 03:24:44;;;;;;;2.08;1.23;;;;;;;;;;5011502;28;20017;-55
2022/06/11 03:27:11;;;;;;;2.47;1.20;;;;;;;;;;5012520;28;20467;-54
2022/06/11 03:29:37;;;;;;;1.80;1.15;;;;;;;;;;5012115;28;20022;-56
2022/06/11 03:32:03;;;;;;;0.75;0.75;;;;;;;;;;5012239;28;20022;-55
2022/06/11 03:34:29;;;;;;;2.00;1.35;;;;;;;;;;5012257;28;20037;-54
2022/06/11 03:36:57;;;;;;;2.88;1.27;;;;;;;;;;5012007;28;20030;-55
2022/06/11 03:39:23;;;;;;;2.15;1.25;;;;;;;;;;5008436;28;20061;-54
2022/06/11 03:41:50;;;;;;;1.42;0.95;;;;;;;;;;5011484;28;20033;-54
2022/06/11 03:44:16;;;;;;;1.35;1.00;;;;;;;;;;5012031;28;20014;-55
2022/06/11 03:46:42;;;;;;;1.55;1.10;;;;;;;;;;5011333;28;20050;-55
2022/06/11 03:49:08;;;;;;;1.88;1.05;;;;;;;;;;5012290;28;20022;-52
2022/06/11 03:51:35;;;;;;;2.90;1.30;;;;;;;;;;5012051;28;20073;-56
2022/06/11 03:54:01;;;;;;;0.95;0.80;;;;;;;;;;5011142;28;20097;-55
2022/06/11 03:56:27;;;;;;;2.25;1.08;;;;;;;;;;5011678;28;20036;-56
2022/06/11 03:58:54;;;;;;;3.80;1.00;;;;;;;;;;5010975;28;20100;-54
2022/06/11 04:01:23;;;;;;;1.27;1.00;;;;;;;;;;5012083;28;20036;-54
2022/06/11 04:03:51;;;;;;;1.27;1.00;;;;;;;;;;5011259;28;20040;-54
2022/06/11 04:06:19;;;;;;;1.40;1.00;;;;;;;;;;5011767;28;20022;-55
2022/06/11 04:08:45;;;;;;;2.72;1.10;;;;;;;;;;5011172;28;20026;-54
2022/06/11 04:11:11;;;;;;;1.48;1.00;;;;;;;;;;5012018;28;20026;-53
2022/06/11 04:13:39;;;;;;;1.58;1.23;;;;;;;;;;5011723;28;20032;-56
2022/06/11 04:16:06;;;;;;;1.40;0.80;;;;;;;;;;5011914;28;20014;-55
2022/06/11 04:18:37;;;;;;;1.80;1.00;;;;;;;;;;5011823;28;20099;-54
2022/06/11 04:21:05;;;;;;;2.53;0.88;;;;;;;;;;5011471;28;20030;-55
2022/06/11 04:23:31;;;;;;;1.55;1.20;;;;;;;;;;5011820;28;20036;-55
2022/06/11 04:25:58;;;;;;;1.38;1.17;;;;;;;;;;5010689;28;20619;-56
2022/06/11 04:28:26;;;;;;;1.20;0.98;;;;;;;;;;5011643;28;20010;-55
2022/06/11 04:30:52;;;;;;;1.30;1.00;;;;;;;;;;5011016;28;20025;-55
2022/06/11 04:33:18;;;;;;;1.98;1.15;;;;;;;;;;5011791;28;20022;-55
2022/06/11 04:35:44;;;;;;;2.10;1.52;;;;;;;;;;5010754;28;20041;-56
2022/06/11 04:38:11;;;;;;;3.67;1.52;;;;;;;;;;5012204;28;20395;-55
2022/06/11 04:40:37;;;;;;;2.63;1.20;;;;;;;;;;5011204;28;20037;-55
2022/06/11 04:43:04;;;;;;;1.63;1.00;;;;;;;;;;5011449;28;20044;-52
2022/06/11 04:45:30;;;;;;;1.42;1.10;;;;;;;;;;5011323;28;20022;-55
2022/06/11 04:47:56;;;;;;;1.45;1.05;;;;;;;;;;5011109;28;20026;-55
2022/06/11 04:50:22;;;;;;;2.15;1.08;;;;;;;;;;5011465;28;20025;-55
2022/06/11 04:52:48;;;;;;;1.52;1.08;;;;;;;;;;5011023;28;20029;-52
2022/06/11 04:55:15;;;;;;;2.35;1.70;;;;;;;;;;5010907;28;20014;-55
2022/06/11 04:57:43;;;;;;;1.27;1.02;;;;;;;;;;5010832;28;20033;-55
2022/06/11 05:00:09;;;;;;;1.20;1.05;;;;;;;;;;5011474;28;20042;-53
2022/06/11 05:02:35;;;;;;;2.38;1.20;;;;;;;;;;5011346;28;20044;-55
2022/06/11 05:05:01;;;;;;;1.88;1.17;;;;;;;;;;5010652;28;20109;-54
2022/06/11 05:07:27;;;;;;;1.40;1.10;;;;;;;;;;5012085;28;20105;-54
2022/06/11 05:09:53;;;;;;;6.22;1.27;;;;;;;;;;5010488;28;20095;-54
2022/06/11 05:12:20;;;;;;;2.80;1.50;;;;;;;;;;5011433;28;20022;-56
2022/06/11 05:14:46;;;;;;;1.98;1.02;;;;;;;;;;5010503;28;20448;-54
2022/06/11 05:17:13;;;;;;;1.40;1.15;;;;;;;;;;5014627;28;20022;-55
2022/06/11 05:19:39;;;;;;;1.65;1.00;;;;;;;;;;5014105;28;20390;-56
2022/06/11 05:22:05;;;;;;;2.85;1.27;;;;;;;;;;5014734;28;20030;-55
2022/06/11 05:24:31;;;;;;;2.65;1.30;;;;;;;;;;5015065;28;20479;-55
2022/06/11 05:26:59;;;;;;;1.75;1.27;;;;;;;;;;5014219;28;20109;-54
2022/06/11 05:29:37;;;;;;;1.85;1.17;;;;;;;;;;5014935;28;20033;-55
2022/06/11 05:32:03;;;;;;;3.92;1.25;;;;;;;;;;5011469;28;20026;-57
2022/06/11 05:34:29;;;;;;;1.83;1.13;;;;;;;;;;5014511;28;20140;-56
2022/06/11 05:36:57;;;;;;;2.28;1.20;;;;;;;;;;5014385;28;20104;-57
2022/06/11 05:39:23;;;;;;;4.03;1.45;;;;;;;;;;5014900;28;20034;-56
2022/06/11 05:41:49;;;;;;;1.60;1.30;;;;;;;;;;5013641;28;20061;-57
2022/06/11 05:44:15;;;;;;;2.03;1.30;;;;;;;;;;5014513;28;20029;-57
2022/06/11 05:46:41;;;;;;;2.17;1.23;;;;;;;;;;5014213;28;20053;-56
2022/06/11 05:49:09;;;;;;;1.75;1.30;;;;;;;;;;5014672;28;20112;-58
2022/06/11 05:51:41;;;;;;;1.90;1.20;;;;;;;;;;5014497;28;20101;-55
2022/06/11 05:54:09;;;;;;;2.47;1.35;;;;;;;;;;5002745;28;20041;-54
2022/06/11 05:56:36;;;;;;;1.38;1.17;;;;;;;;;;5014105;28;20112;-53
2022/06/11 05:59:04;;;;;;;2.42;1.23;;;;;;;;;;5013556;28;20451;-55
2022/06/11 06:01:33;;;;;;;1.92;1.35;;;;;;;;;;5014177;28;20036;-55
2022/06/11 06:03:59;;;;;;;1.80;1.27;;;;;;;;;;5013613;28;20057;-55
2022/06/11 06:06:25;;;;;;;2.75;1.55;;;;;;;;;;5013931;28;20053;-54
2022/06/11 06:08:51;;;;;;;1.80;1.30;;;;;;;;;;5013482;28;20034;-55
2022/06/11 06:11:17;;;;;;;1.63;0.98;;;;;;;;;;5008510;28;20038;-54
2022/06/11 06:13:46;;;;;;;1.98;1.13;;;;;;;;;;5012793;28;20463;-55
2022/06/11 06:16:16;;;;;;;2.05;1.50;;;;;;;;;;5010645;28;20383;-55
2022/06/11 06:18:42;;;;;;;1.63;1.38;;;;;;;;;;5013465;28;20037;-55
2022/06/11 06:21:08;;;;;;;2.20;1.35;;;;;;;;;;5013445;28;20033;-54
2022/06/11 06:23:35;;;;;;;2.13;1.17;;;;;;;;;;5013908;28;20034;-54
2022/06/11 06:26:01;;;;;;;3.03;0.98;;;;;;;;;;5012943;28;20021;-54
2022/06/11 06:28:27;;;;;;;2.95;1.25;;;;;;;;;;5012295;28;20134;-55
2022/06/11 06:30:53;;;;;;;1.73;1.30;;;;;;;;;;5012703;28;20026;-56
2022/06/11 06:33:19;;;;;;;2.60;1.52;;;;;;;;;;5013696;28;20033;-55
2022/06/11 06:35:45;;;;;;;2.05;1.23;;;;;;;;;;5012488;28;20100;-54
2022/06/11 06:38:11;;;;;;;2.00;1.27;;;;;;;;;;5013626;28;20166;-55
2022/06/11 06:40:38;;;;;;;1.73;1.25;;;;;;;;;;5012993;28;20511;-54
2022/06/11 06:43:04;;;;;;;1.40;1.30;;;;;;;;;;5013041;28;20045;-54
2022/06/11 06:45:30;;;;;;;1.50;0.98;;;;;;;;;;5013015;28;20065;-55
2022/06/11 06:47:56;;;;;;;2.35;1.80;;;;;;;;;;5012887;28;20057;-56
2022/06/11 06:50:22;;;;;;;3.85;1.50;;;;;;;;;;5012794;28;20548;-55
2022/06/11 06:52:48;;;;;;;3.10;1.42;;;;;;;;;;5012369;28;20105;-55
2022/06/11 06:55:15;;;;;;;4.30;1.73;;;;;;;;;;5013079;28;20105;-55
2022/06/11 06:57:41;;;;;;;3.90;1.73;;;;;;;;;;5012366;28;20080;-57
2022/06/11 07:00:08;;;;;;;3.30;1.60;;;;;;;;;;5012878;28;20026;-56
2022/06/11 07:02:34;;;;;;;4.15;1.48;;;;;;;;;;5012824;28;20030;-56
2022/06/11 07:05:00;;;;;;;5.13;1.50;;;;;;;;;;5016815;28;20087;-57
2022/06/11 07:07:26;;;;;;;1.92;1.60;;;;;;;;;;5013247;28;20022;-54
2022/06/11 07:09:53;;;;;;;3.33;1.60;;;;;;;;;;5012080;28;20129;-54
2022/06/11 07:12:19;;;;;;;3.67;1.45;;;;;;;;;;4991126;28;20105;-56
2022/06/11 07:14:45;;;;;;;2.88;1.65;;;;;;;;;;5008633;28;20030;-55
2022/06/11 07:17:11;;;;;;;4.28;1.75;;;;;;;;;;5012831;28;20391;-56
2022/06/11 07:19:50;;;;;;;2.58;1.40;;;;;;;;;;5012680;28;20521;-51
2022/06/11 07:22:22;;;;;;;1.95;1.45;;;;;;;;;;5012644;28;20022;-51
2022/06/11 07:24:48;;;;;;;3.47;1.70;;;;;;;;;;5011810;28;20383;-55
2022/06/11 07:27:16;;;;;;;3.47;1.65;;;;;;;;;;5012371;28;20025;-57
2022/06/11 07:29:44;;;;;;;3.22;1.60;;;;;;;;;;5011853;28;20038;-57
2022/06/11 07:32:15;;;;;;;4.13;1.50;;;;;;;;;;5012281;28;20479;-57
2022/06/11 07:34:41;;;;;;;2.53;1.08;;;;;;;;;;5003893;28;20073;-56
2022/06/11 07:37:08;;;;;;;2.75;1.23;;;;;;;;;;5012265;28;20030;-56
2022/06/11 07:39:34;;;;;;;3.40;0.90;;;;;;;;;;5011874;28;20483;-56
2022/06/11 07:42:01;;;;;;;5.03;1.33;;;;;;;;;;5011369;28;20033;-55
2022/06/11 07:44:27;;;;;;;2.75;1.20;;;;;;;;;;5005775;28;20049;-57
2022/06/11 07:46:53;;;;;;;5.05;1.83;;;;;;;;;;5000953;28;20057;-51
2022/06/11 07:49:19;;;;;;;3.22;1.98;;;;;;;;;;5011471;28;20022;-56
2022/06/11 07:51:45;;;;;;;2.13;1.20;;;;;;;;;;5010148;28;20041;-55
2022/06/11 07:54:11;;;;;;;4.53;1.40;;;;;;;;;;5012252;28;20022;-55
2022/06/11 07:56:38;;;;;;;1.70;1.30;;;;;;;;;;5011927;28;20459;-54
2022/06/11 07:59:04;;;;;;;2.33;1.00;;;;;;;;;;5010804;28;20053;-54
2022/06/11 08:01:30;;;;;;;2.88;1.08;;;;;;;;;;5011887;28;20030;-56
2022/06/11 08:03:56;;;;;;;2.22;1.30;;;;;;;;;;5010912;28;20468;-56
2022/06/11 08:06:22;;;;;;;1.65;1.23;;;;;;;;;;5011829;28;20080;-57
2022/06/11 08:08:50;;;;;;;2.13;1.15;;;;;;;;;;5011217;28;20030;-56
2022/06/11 08:11:16;;;;;;;3.22;1.20;;;;;;;;;;5011786;28;20036;-56
2022/06/11 08:13:42;;;;;;;3.85;1.42;;;;;;;;;;5011719;28;20034;-58
2022/06/11 08:16:10;;;;;;;2.95;1.20;;;;;;;;;;5011181;28;20529;-54
2022/06/11 08:18:37;;;;;;;3.30;1.70;;;;;;;;;;5011624;28;20029;-49
2022/06/11 08:21:03;;;;;;;4.00;1.30;;;;;;;;;;5010744;28;20056;-53
2022/06/11 08:23:29;;;;;;;2.30;1.58;;;;;;;;;;5011655;28;20034;-51
2022/06/11 08:25:56;;;;;;;3.05;1.20;;;;;;;;;;5010885;28;20062;-55
2022/06/11 08:28:22;;;;;;;4.68;1.20;;;;;;;;;;5011669;28;20045;-54
2022/06/11 08:30:48;;;;;;;2.95;0.95;;;;;;;;;;5010639;28;20419;-55
2022/06/11 08:33:15;;;;;;;2.70;1.30;;;;;;;;;;5011488;28;20060;-48
2022/06/11 08:35:41;;;;;;;3.63;1.20;;;;;;;;;;5011182;28;20026;-60
2022/06/11 08:38:07;;;;;;;3.30;1.25;;;;;;;;;;5011058;28;20026;-59
2022/06/11 08:40:41;;;;;;;2.05;1.00;;;;;;;;;;5010999;28;20568;-59
2022/06/11 08:43:25;;;;;;;4.75;1.38;;;;;;;;;;5011228;28;20030;-58
2022/06/11 08:46:15;;;;;;;1.85;1.23;;;;;;;;;;5010282;28;20056;-58
2022/06/11 08:49:00;;;;;;;3.75;1.10;;;;;;;;;;4998944;28;20034;-59
2022/06/11 08:51:44;;;;;;;1.42;1.00;;;;;;;;;;4996204;28;20033;-59
2022/06/11 08:54:20;;;;;;;2.17;0.90;;;;;;;;;;5003851;28;20060;-59
2022/06/11 08:56:46;;;;;;;2.78;1.00;;;;;;;;;;5014603;28;20038;-59
2022/06/11 08:59:19;;;;;;;2.75;1.27;;;;;;;;;;5015509;28;20030;-58
2022/06/11 09:01:49;;;;;;;2.78;1.40;;;;;;;;;;5014165;28;20025;-59
2022/06/11 09:04:38;;;;;;;3.13;1.10;;;;;;;;;;5015040;28;20026;-58
2022/06/11 09:07:12;;;;;;;5.78;1.23;;;;;;;;;;5000261;28;20628;-59
2022/06/11 09:10:01;;;;;;;3.45;1.10;;;;;;;;;;5015156;28;20030;-58
2022/06/11 09:12:46;;;;;;;2.45;0.90;;;;;;;;;;5004573;28;20045;-59
2022/06/11 09:15:15;;;;;;;1.58;1.08;;;;;;;;;;5009380;28;20177;-58
2022/06/11 09:17:48;;;;;;;1.75;1.00;;;;;;;;;;5014740;28;20053;-58
2022/06/11 09:20:22;;;;;;;3.35;1.20;;;;;;;;;;5015135;28;20103;-58
2022/06/11 09:23:10;;;;;;;1.67;1.02;;;;;;;;;;5013883;28;20034;-58
2022/06/11 09:25:55;;;;;;;2.00;1.10;;;;;;;;;;5015026;28;20109;-59
2022/06/11 09:28:28;;;;;;;2.78;1.40;;;;;;;;;;5012102;28;20098;-59
2022/06/11 09:31:08;;;;;;;2.28;1.17;;;;;;;;;;5013734;28;20033;-58
2022/06/11 09:33:40;;;;;;;3.13;1.23;;;;;;;;;;5014465;28;20368;-58
2022/06/11 09:36:12;;;;;;;1.38;1.17;;;;;;;;;;5014154;28;20022;-58
2022/06/11 09:38:43;;;;;;;1.65;1.05;;;;;;;;;;5014705;28;20038;-59
2022/06/11 09:41:15;;;;;;;2.33;0.98;;;;;;;;;;5014292;28;20132;-58
2022/06/11 09:43:41;;;;;;;1.55;1.25;;;;;;;;;;5014461;28;20033;-59
2022/06/11 09:46:14;;;;;;;1.85;1.30;;;;;;;;;;5013655;28;20057;-59
2022/06/11 09:48:52;;;;;;;2.03;1.20;;;;;;;;;;5014451;28;20022;-58
2022/06/11 09:51:25;;;;;;;2.50;1.30;;;;;;;;;;5014066;28;20037;-58
2022/06/11 09:53:59;;;;;;;1.13;1.00;;;;;;;;;;5013051;28;20014;-58
2022/06/11 09:56:25;;;;;;;1.70;0.93;;;;;;;;;;5014480;28;20022;-58
2022/06/11 09:59:00;;;;;;;2.08;1.00;;;;;;;;;;5013169;28;20045;-58
2022/06/11 10:01:29;;;;;;;2.53;1.02;;;;;;;;;;5013310;28;20507;-58
2022/06/11 10:03:58;;;;;;;1.40;0.82;;;;;;;;;;5000243;28;20033;-58
2022/06/11 10:06:26;;;;;;;1.85;1.40;;;;;;;;;;5014051;28;20022;-55
2022/06/11 10:09:09;;;;;;;2.25;1.13;;;;;;;;;;5012986;28;20140;-55
2022/06/11 10:11:37;;;;;;;2.50;1.00;;;;;;;;;;5013904;28;20446;-56
2022/06/11 10:16:55;;;;;;;1.85;0.90;;;;;;;;;;5012705;28;20567;-61
2022/06/11 10:19:36;;;;;;;2.33;1.30;;;;;;;;;;5014214;28;20477;-57
2022/06/11 10:22:26;;;;;;;3.63;1.10;;;;;;;;;;5002173;28;20588;-57
2022/06/11 10:24:58;;;;;;;7.15;1.67;;;;;;;;;;4961744;28;20065;-58
2022/06/11 10:27:25;;;;;;;2.67;0.98;;;;;;;;;;4996051;28;20022;-55
2022/06/11 10:29:53;;;;;;;3.50;1.40;;;;;;;;;;5012884;28;20033;-49
2022/06/11 10:32:23;;;;;;;5.40;1.30;;;;;;;;;;5013273;28;20018;-60
2022/06/11 10:35:12;;;;;;;2.95;1.02;;;;;;;;;;5005233;28;20025;-59
2022/06/11 10:37:47;;;;;;;5.45;1.10;;;;;;;;;;5002902;28;20061;-59
2022/06/11 10:40:26;;;;;;;4.10;1.38;;;;;;;;;;5013638;28;20026;-58
2022/06/11 10:42:55;;;;;;;1.98;0.98;;;;;;;;;;5004295;28;20026;-55
2022/06/11 10:45:21;;;;;;;4.85;1.33;;;;;;;;;;5013041;28;20022;-60
2022/06/11 10:47:48;;;;;;;3.00;1.00;;;;;;;;;;5012509;28;20407;-57
2022/06/11 10:50:17;;;;;;;7.43;1.25;;;;;;;;;;5013084;28;20071;-62
2022/06/11 10:53:02;;;;;;;4.10;1.30;;;;;;;;;;5013205;28;20471;-62
2022/06/11 10:55:40;;;;;;;5.43;1.42;;;;;;;;;;5012704;28;20029;-46
2022/06/11 10:58:16;;;;;;;4.80;1.98;;;;;;;;;;5006443;28;20244;-64
2022/06/11 11:00:45;;;;;;;4.38;1.23;;;;;;;;;;5013075;28;20026;-58
2022/06/11 11:03:33;;;;;;;9.93;1.77;;;;;;;;;;5012819;28;20026;-56
2022/06/11 11:06:01;;;;;;;2.28;1.33;;;;;;;;;;5003761;28;20096;-58
2022/06/11 11:08:27;;;;;;;3.00;1.48;;;;;;;;;;5012689;28;20493;-58
2022/06/11 11:10:54;;;;;;;4.47;1.25;;;;;;;;;;5011400;28;20041;-54
2022/06/11 11:13:35;;;;;;;3.50;1.70;;;;;;;;;;5011883;28;20022;-56
2022/06/11 11:16:22;;;;;;;1.88;1.17;;;;;;;;;;5006184;28;20076;-53
2022/06/11 11:18:51;;;;;;;3.25;1.42;;;;;;;;;;5011498;28;20041;-54
2022/06/11 11:21:19;;;;;;;3.90;1.50;;;;;;;;;;5012686;28;20029;-53
2022/06/11 11:23:47;;;;;;;2.95;1.42;;;;;;;;;;5012163;28;20037;-55
2022/06/11 11:26:36;;;;;;;4.68;1.60;;;;;;;;;;5012282;28;20506;-53
2022/06/11 11:29:08;;;;;;;4.45;1.48;;;;;;;;;;4996124;28;20033;-54
2022/06/11 11:31:53;;;;;;;4.85;2.05;;;;;;;;;;5012619;28;20062;-52
2022/06/11 11:34:25;;;;;;;5.25;1.50;;;;;;;;;;5012371;28;20096;-50
2022/06/11 11:36:57;;;;;;;5.20;1.63;;;;;;;;;;5011698;28;20116;-51
2022/06/11 11:39:29;;;;;;;3.88;1.30;;;;;;;;;;5012488;28;20060;-54
2022/06/11 11:42:04;;;;;;;4.50;1.80;;;;;;;;;;5005468;28;20030;-54
2022/06/11 11:44:35;;;;;;;4.20;1.60;;;;;;;;;;5012120;28;20037;-55
2022/06/11 11:47:02;;;;;;;3.67;1.50;;;;;;;;;;5010875;28;20053;-52
2022/06/11 11:49:31;;;;;;;2.72;1.40;;;;;;;;;;5011633;28;20034;-55
2022/06/11 11:52:04;;;;;;;5.55;1.60;;;;;;;;;;5007995;28;20690;-53
2022/06/11 11:54:30;;;;;;;5.00;1.40;;;;;;;;;;5012029;28;20061;-53
2022/06/11 11:56:56;;;;;;;9.57;1.75;;;;;;;;;;5011014;28;20026;-54
2022/06/11 11:59:29;;;;;;;3.65;1.67;;;;;;;;;;5012347;28;20045;-54
2022/06/11 12:02:05;;;;;;;3.65;1.63;;;;;;;;;;5009405;28;20025;-51
2022/06/11 12:04:47;;;;;;;3.13;1.40;;;;;;;;;;5011819;28;20029;-50
2022/06/11 12:07:15;;;;;;;5.38;1.35;;;;;;;;;;5006394;28;20033;-51
2022/06/11 12:09:51;;;;;;;2.67;1.42;;;;;;;;;;5011776;28;20037;-53
2022/06/11 12:12:19;;;;;;;4.78;1.67;;;;;;;;;;5011635;28;20383;-49
2022/06/11 12:14:49;;;;;;;3.25;1.60;;;;;;;;;;5011666;28;20026;-56
2022/06/11 12:17:29;;;;;;;4.18;1.50;;;;;;;;;;5011651;28;20026;-53
2022/06/11 12:19:59;;;;;;;3.80;1.67;;;;;;;;;;5010777;28;20036;-55
2022/06/11 12:22:29;;;;;;;7.03;1.90;;;;;;;;;;5011652;28;20498;-53
2022/06/11 12:24:55;;;;;;;3.97;1.70;;;;;;;;;;5011018;28;20026;-51
2022/06/11 12:27:39;;;;;;;4.22;1.77;;;;;;;;;;5011332;28;20022;-54
2022/06/11 12:30:07;;;;;;;2.65;1.38;;;;;;;;;;5000684;28;20637;-55
2022/06/11 12:32:34;;;;;;;5.30;1.85;;;;;;;;;;5010682;28;20022;-54
2022/06/11 12:35:01;;;;;;;4.57;1.92;;;;;;;;;;5010189;28;20026;-53
2022/06/11 12:37:47;;;;;;;3.70;1.55;;;;;;;;;;5011812;28;20084;-50
2022/06/11 12:40:28;;;;;;;3.65;1.40;;;;;;;;;;4994368;28;20061;-54
2022/06/11 12:42:54;;;;;;;3.63;1.40;;;;;;;;;;5002416;28;20062;-51
2022/06/11 12:45:39;;;;;;;1.83;1.10;;;;;;;;;;5011402;28;20029;-52
2022/06/11 12:48:25;;;;;;;2.13;1.05;;;;;;;;;;5002010;28;20116;-54
2022/06/11 12:51:01;;;;;;;1.95;1.20;;;;;;;;;;5001097;28;20032;-55
2022/06/11 12:53:40;;;;;;;3.35;1.50;;;;;;;;;;5011375;28;20037;-50
2022/06/11 12:56:12;;;;;;;2.45;1.10;;;;;;;;;;5000752;28;20068;-51
2022/06/11 12:58:41;;;;;;;3.30;1.42;;;;;;;;;;5011179;28;20129;-54
2022/06/11 13:01:19;;;;;;;2.78;1.30;;;;;;;;;;5010485;28;20027;-54
2022/06/11 13:03:58;;;;;;;2.10;1.35;;;;;;;;;;5011094;28;20058;-56
2022/06/11 13:06:31;;;;;;;3.80;1.27;;;;;;;;;;5011169;28;20029;-53
2022/06/11 13:09:06;;;;;;;2.97;1.10;;;;;;;;;;5010272;28;20038;-56
2022/06/11 13:11:39;;;;;;;2.63;1.33;;;;;;;;;;5010955;28;20026;-55
2022/06/11 13:14:23;;;;;;;4.57;1.42;;;;;;;;;;5010309;28;20105;-54
2022/06/11 13:16:52;;;;;;;3.83;1.77;;;;;;;;;;5010368;28;20037;-56
2022/06/11 13:19:37;;;;;;;2.20;1.30;;;;;;;;;;5011047;28;20033;-54
2022/06/11 13:22:13;;;;;;;3.03;1.30;;;;;;;;;;5000314;28;20068;-51
2022/06/11 13:24:47;;;;;;;2.70;1.30;;;;;;;;;;5011040;28;20022;-51
2022/06/11 13:27:27;;;;;;;4.63;1.45;;;;;;;;;;5010448;28;20026;-49
2022/06/11 13:30:11;;;;;;;4.38;1.40;;;;;;;;;;5010286;28;20026;-51
2022/06/11 13:32:38;;;;;;;2.13;1.50;;;;;;;;;;5007153;28;20034;-53
2022/06/11 13:35:06;;;;;;;3.10;1.42;;;;;;;;;;5010085;28;20037;-55
2022/06/11 13:37:42;;;;;;;3.67;1.83;;;;;;;;;;5012586;28;20488;-55
2022/06/11 13:40:28;;;;;;;2.75;1.10;;;;;;;;;;5013760;28;20029;-54
2022/06/11 13:43:13;;;;;;;2.25;1.50;;;;;;;;;;5005516;28;20394;-53
2022/06/11 13:45:39;;;;;;;1.77;1.40;;;;;;;;;;5014321;28;20415;-52
2022/06/11 13:48:08;;;;;;;3.70;1.15;;;;;;;;;;5013404;28;20025;-52
2022/06/11 13:50:43;;;;;;;3.40;1.15;;;;;;;;;;5014346;28;20030;-55
2022/06/11 13:56:31;;;;;;;2.85;1.20;;;;;;;;;;5006043;28;20024;-54
2022/06/11 13:59:08;;;;;;;2.45;1.33;;;;;;;;;;5005727;28;20040;-54
2022/06/11 14:01:37;;;;;;;1.88;1.30;;;;;;;;;;5014083;28;20033;-55
2022/06/11 14:04:17;;;;;;;3.97;2.03;;;;;;;;;;5013312;28;20053;-54
2022/06/11 14:06:45;;;;;;;2.67;1.23;;;;;;;;;;5014043;28;20026;-56
2022/06/11 14:12:04;;;;;;;3.33;1.83;;;;;;;;;;5007234;28;20060;-54
2022/06/11 14:14:32;;;;;;;4.53;2.10;;;;;;;;;;5014025;28;20057;-54
2022/06/11 14:16:58;;;;;;;3.10;2.63;;;;;;;;;;5013438;28;20033;-55
2022/06/11 14:19:24;;;;;;;3.35;2.13;;;;;;;;;;4996383;28;20471;-54
2022/06/11 14:21:54;;;;;;;4.50;2.95;;;;;;;;;;5013143;28;20054;-56
2022/06/11 14:24:39;;;;;;;5.28;2.58;;;;;;;;;;5014004;28;20021;-53
2022/06/11 14:27:24;;;;;;;3.97;2.60;;;;;;;;;;5013071;28;20511;-52
2022/06/11 14:30:17;;;;;;;2.90;2.38;;;;;;;;;;5012644;28;20104;-55
2022/06/11 14:32:45;;;;;;;4.45;3.08;;;;;;;;;;5011833;28;20041;-54
2022/06/11 14:35:19;;;;;;;2.78;2.00;;;;;;;;;;5012692;28;20022;-51
2022/06/11 14:37:46;;;;;;;2.33;1.83;;;;;;;;;;5013430;28;20030;-54
2022/06/11 14:40:12;;;;;;;3.40;1.88;;;;;;;;;;5013001;28;20030;-53
2022/06/11 14:42:55;;;;;;;3.15;1.98;;;;;;;;;;5012596;28;20029;-52
2022/06/11 14:45:36;;;;;;;4.13;2.20;;;;;;;;;;5013277;28;20029;-54
2022/06/11 14:48:14;;;;;;;3.63;1.77;;;;;;;;;;5003348;28;20076;-53
2022/06/11 14:51:12;;;;;;;2.58;1.63;;;;;;;;;;5013238;28;20026;-53
2022/06/11 14:53:53;;;;;;;4.60;2.40;;;;;;;;;;5012852;28;20521;-54
2022/06/11 14:56:38;;;;;;;3.85;2.20;;;;;;;;;;5013454;28;20529;-54
2022/06/11 14:59:10;;;;;;;2.75;2.00;;;;;;;;;;5005681;28;20061;-54
2022/06/11 15:01:55;;;;;;;3.35;2.13;;;;;;;;;;5012978;28;20044;-55
2022/06/11 15:04:23;;;;;;;3.85;1.95;;;;;;;;;;5013175;28;20411;-54
2022/06/11 15:07:01;;;;;;;3.17;1.70;;;;;;;;;;5012555;28;20044;-57
2022/06/11 15:09:45;;;;;;;3.42;2.35;;;;;;;;;;5012811;28;20042;-56
2022/06/11 15:12:50;;;;;;;2.65;1.80;;;;;;;;;;5007507;28;20097;-53
2022/06/11 15:15:34;;;;;;;4.00;2.13;;;;;;;;;;4933030;29;20497;-53